createdAt,value
2017-03-23T00:00:58.800Z,1020.205
2017-03-23T00:03:52.203Z,1020.188
2017-03-23T00:06:45.699Z,1020.177
2017-03-23T00:09:38.956Z,1020.205
2017-03-23T00:12:32.370Z,1020.201
2017-03-23T00:15:25.611Z,1020.149
2017-03-23T00:21:12.241Z,1020.114
2017-03-23T00:24:05.734Z,1020.192
2017-03-23T00:26:59.296Z,1020.207
2017-03-23T00:29:52.587Z,1020.184
2017-03-23T00:32:45.871Z,1020.145
2017-03-23T00:35:39.063Z,1020.097
2017-03-23T00:38:32.471Z,1020.028
2017-03-23T00:41:25.878Z,1020.002
2017-03-23T00:44:19.163Z,1019.984
2017-03-23T00:50:05.644Z,1019.977
2017-03-23T00:52:58.965Z,1019.986
2017-03-23T00:58:45.465Z,1020.007
2017-03-23T01:01:38.661Z,1020.046
2017-03-23T01:04:31.930Z,1020.060
2017-03-23T01:13:11.734Z,1019.936
2017-03-23T01:27:38.387Z,1020.058
2017-03-23T01:30:31.605Z,1019.994
2017-03-23T01:36:18.138Z,1020.006
2017-03-23T01:42:04.424Z,1019.941
2017-03-23T01:47:51.113Z,1019.871
2017-03-23T01:50:44.266Z,1019.869
2017-03-23T01:53:37.246Z,1019.880
2017-03-23T01:56:30.401Z,1019.784
2017-03-23T01:59:23.510Z,1019.817
2017-03-23T02:02:16.536Z,1019.827
2017-03-23T02:08:02.868Z,1019.839
2017-03-23T02:10:55.950Z,1019.829
2017-03-23T02:16:42.095Z,1019.763
2017-03-23T02:22:28.286Z,1019.683
2017-03-23T02:28:14.827Z,1019.616
2017-03-23T02:31:08.140Z,1019.526
2017-03-23T02:34:01.388Z,1019.490
2017-03-23T02:36:54.596Z,1019.521
2017-03-23T02:39:47.992Z,1019.529
2017-03-23T02:42:41.341Z,1019.503
2017-03-23T02:45:34.671Z,1019.485
2017-03-23T02:48:27.945Z,1019.490
2017-03-23T02:51:21.123Z,1019.478
2017-03-23T02:54:14.378Z,1019.404
2017-03-23T02:57:07.979Z,1019.381
2017-03-23T03:00:01.354Z,1019.381
2017-03-23T03:02:54.878Z,1019.371
2017-03-23T03:05:48.285Z,1019.470
2017-03-23T03:08:41.823Z,1019.458
2017-03-23T03:11:35.301Z,1019.474
2017-03-23T03:14:28.958Z,1019.501
2017-03-23T03:17:22.466Z,1019.454
2017-03-23T03:23:09.403Z,1019.386
2017-03-23T03:26:02.898Z,1019.424
2017-03-23T03:31:49.956Z,1019.475
2017-03-23T03:34:43.897Z,1019.531
2017-03-23T03:37:37.434Z,1019.599
2017-03-23T03:40:30.866Z,1019.678
2017-03-23T03:43:24.387Z,1019.704
2017-03-23T03:49:11.383Z,1019.667
2017-03-23T03:52:04.914Z,1019.577
2017-03-23T04:00:45.560Z,1019.623
2017-03-23T04:12:19.317Z,1019.537
2017-03-23T04:15:12.786Z,1019.570
2017-03-23T04:18:06.158Z,1019.727
2017-03-23T04:23:53.248Z,1019.802
2017-03-23T04:29:39.513Z,1019.836
2017-03-23T04:32:32.585Z,1019.739
2017-03-23T04:35:25.545Z,1019.745
2017-03-23T04:41:11.939Z,1019.751
2017-03-23T04:44:05.114Z,1019.815
2017-03-23T04:46:58.248Z,1019.809
2017-03-23T04:49:51.333Z,1019.874
2017-03-23T04:52:44.419Z,1019.797
2017-03-23T04:55:37.568Z,1019.800
2017-03-23T04:58:30.704Z,1019.782
2017-03-23T05:01:23.506Z,1019.766
2017-03-23T05:04:16.469Z,1019.737
2017-03-23T05:07:09.320Z,1019.806
2017-03-23T05:10:02.149Z,1019.858
2017-03-23T05:12:55.038Z,1019.863
2017-03-23T05:15:49.428Z,1019.843
2017-03-23T05:18:43.835Z,1019.904
2017-03-23T05:21:37.984Z,1019.986
2017-03-23T05:27:25.843Z,1020.078
2017-03-23T05:38:58.562Z,1020.086
2017-03-23T05:41:51.883Z,1020.082
2017-03-23T05:44:45.659Z,1020.114
2017-03-23T05:50:32.861Z,1020.153
2017-03-23T05:53:26.198Z,1020.122
2017-03-23T05:56:19.597Z,1020.189
2017-03-23T05:59:13.001Z,1020.169
2017-03-23T06:05:00.357Z,1020.183
2017-03-23T06:07:54.514Z,1020.180
2017-03-23T06:10:48.640Z,1020.194
2017-03-23T06:16:36.762Z,1020.248
2017-03-23T06:19:30.740Z,1020.254
2017-03-23T06:22:24.743Z,1020.265
2017-03-23T06:25:19.102Z,1020.263
2017-03-23T06:34:01.400Z,1020.184
2017-03-23T06:36:55.346Z,1020.281
2017-03-23T06:42:43.269Z,1020.357
2017-03-23T06:48:30.991Z,1020.436
2017-03-23T06:51:24.756Z,1020.458
2017-03-23T06:54:18.490Z,1020.477
2017-03-23T07:00:06.215Z,1020.562
2017-03-23T07:03:00.053Z,1020.595
2017-03-23T07:05:53.743Z,1020.613
2017-03-23T07:08:47.499Z,1020.612
2017-03-23T07:11:41.360Z,1020.681
2017-03-23T07:14:35.047Z,1020.715
2017-03-23T07:17:28.917Z,1020.703
2017-03-23T07:20:22.671Z,1020.719
2017-03-23T07:23:16.557Z,1020.728
2017-03-23T07:26:10.444Z,1020.777
2017-03-23T07:29:04.211Z,1020.794
2017-03-23T07:31:57.939Z,1020.750
2017-03-23T07:34:51.660Z,1020.719
2017-03-23T07:37:45.354Z,1020.715
2017-03-23T07:40:39.099Z,1020.776
2017-03-23T07:43:32.831Z,1020.744
2017-03-23T07:49:20.301Z,1020.709
2017-03-23T07:52:14.121Z,1020.694
2017-03-23T07:55:07.854Z,1020.721
2017-03-23T08:00:55.237Z,1020.739
2017-03-23T08:03:48.835Z,1020.721
2017-03-23T08:06:42.592Z,1020.725
2017-03-23T08:09:36.404Z,1020.707
2017-03-23T08:12:30.124Z,1020.695
2017-03-23T08:15:23.787Z,1020.698
2017-03-23T08:18:17.445Z,1020.742
2017-03-23T08:21:11.129Z,1020.757
2017-03-23T08:24:04.978Z,1020.751
2017-03-23T08:26:59.131Z,1020.749
2017-03-23T08:29:52.790Z,1020.755
2017-03-23T08:35:40.467Z,1020.786
2017-03-23T08:38:34.326Z,1020.798
2017-03-23T08:41:28.305Z,1020.786
2017-03-23T08:44:22.182Z,1020.777
2017-03-23T08:47:16.057Z,1020.758
2017-03-23T08:50:09.917Z,1020.738
2017-03-23T08:55:57.667Z,1020.767
2017-03-23T08:58:51.529Z,1020.757
2017-03-23T09:01:45.403Z,1020.738
2017-03-23T09:07:33.154Z,1020.731
2017-03-23T09:10:27.022Z,1020.665
2017-03-23T09:13:20.985Z,1020.620
2017-03-23T09:16:14.945Z,1020.590
2017-03-23T09:19:08.783Z,1020.564
2017-03-23T09:22:02.705Z,1020.595
2017-03-23T09:27:50.568Z,1020.657
2017-03-23T09:30:44.507Z,1020.652
2017-03-23T09:36:32.203Z,1020.641
2017-03-23T09:42:20.099Z,1020.604
2017-03-23T09:45:13.953Z,1020.625
2017-03-23T09:48:07.951Z,1020.671
2017-03-23T09:51:01.942Z,1020.658
2017-03-23T09:53:56.007Z,1020.668
2017-03-23T09:56:49.721Z,1020.642
2017-03-23T09:59:43.254Z,1020.580
2017-03-23T10:05:30.367Z,1020.576
2017-03-23T10:08:23.918Z,1020.563
2017-03-23T10:14:10.887Z,1020.546
2017-03-23T10:17:04.306Z,1020.550
2017-03-23T10:19:57.912Z,1020.575
2017-03-23T10:22:51.405Z,1020.601
2017-03-23T10:25:44.974Z,1020.630
2017-03-23T10:28:39.056Z,1020.658
2017-03-23T10:37:20.650Z,1020.687
2017-03-23T10:40:14.193Z,1020.700
2017-03-23T10:48:55.127Z,1020.808
2017-03-23T10:57:35.293Z,1020.791
2017-03-23T11:00:28.830Z,1020.743
2017-03-23T11:03:22.389Z,1020.725
2017-03-23T11:06:15.765Z,1020.679
2017-03-23T11:09:09.277Z,1020.649
2017-03-23T11:12:03.204Z,1020.675
2017-03-23T11:14:56.744Z,1020.679
2017-03-23T11:20:44.292Z,1020.682
2017-03-23T11:23:37.570Z,1020.697
2017-03-23T11:26:30.871Z,1020.650
2017-03-23T11:29:24.940Z,1020.642
2017-03-23T11:32:18.183Z,1020.612
2017-03-23T11:35:11.786Z,1020.584
2017-03-23T11:38:05.713Z,1020.559
2017-03-23T11:40:59.610Z,1020.559
2017-03-23T11:43:53.074Z,1020.513
2017-03-23T11:46:46.981Z,1020.534
2017-03-23T11:52:34.813Z,1020.507
2017-03-23T11:55:28.880Z,1020.523
2017-03-23T11:58:22.619Z,1020.536
2017-03-23T12:01:16.668Z,1020.547
2017-03-23T12:04:10.380Z,1020.546
2017-03-23T12:07:03.892Z,1020.542
2017-03-23T12:09:57.420Z,1020.559
2017-03-23T12:12:51.256Z,1020.538
2017-03-23T12:15:44.573Z,1020.557
2017-03-23T12:18:38.190Z,1020.543
2017-03-23T12:21:31.652Z,1020.524
2017-03-23T12:24:25.107Z,1020.528
2017-03-23T12:27:18.617Z,1020.550
2017-03-23T12:38:53.162Z,1020.454
2017-03-23T12:41:46.698Z,1020.409
2017-03-23T12:50:27.886Z,1020.279
2017-03-23T12:53:21.693Z,1020.238
2017-03-23T12:56:15.471Z,1020.137
2017-03-23T12:59:09.269Z,1020.137
2017-03-23T13:02:03.111Z,1020.153
2017-03-23T13:13:38.080Z,1020.087
2017-03-23T13:16:31.817Z,1020.111
2017-03-23T13:22:19.398Z,1020.205
2017-03-23T13:25:12.797Z,1020.190
2017-03-23T13:28:06.389Z,1020.185
2017-03-23T13:31:00.018Z,1020.148
2017-03-23T13:36:47.044Z,1020.254
2017-03-23T13:42:34.472Z,1020.344
2017-03-23T13:45:28.342Z,1020.303
2017-03-23T13:48:22.024Z,1020.275
2017-03-23T13:51:15.619Z,1020.212
2017-03-23T13:54:09.161Z,1020.197
2017-03-23T14:02:49.897Z,1020.360
2017-03-23T14:08:37.106Z,1020.351
2017-03-23T14:14:24.486Z,1020.331
2017-03-23T14:17:18.567Z,1020.304
2017-03-23T14:20:11.747Z,1020.349
2017-03-23T14:28:52.506Z,1020.437
2017-03-23T14:31:46.163Z,1020.462
2017-03-23T14:34:39.803Z,1020.479
2017-03-23T14:37:33.354Z,1020.536
2017-03-23T14:40:27.046Z,1020.642
2017-03-23T14:46:14.332Z,1020.779
2017-03-23T14:49:08.114Z,1020.780
2017-03-23T14:52:01.459Z,1020.826
2017-03-23T14:54:54.890Z,1020.785
2017-03-23T14:57:48.336Z,1020.729
2017-03-23T15:06:29.400Z,1020.764
2017-03-23T15:09:23.006Z,1020.798
2017-03-23T15:12:16.484Z,1020.811
2017-03-23T15:15:10.143Z,1020.804
2017-03-23T15:18:03.758Z,1020.777
2017-03-23T15:20:57.266Z,1020.749
2017-03-23T15:29:37.854Z,1020.793
2017-03-23T15:35:24.626Z,1020.871
2017-03-23T15:38:18.211Z,1020.986
2017-03-23T15:44:04.791Z,1021.122
2017-03-23T15:46:58.263Z,1021.094
2017-03-23T15:52:45.333Z,1021.022
2017-03-23T15:55:38.707Z,1020.987
2017-03-23T15:58:32.116Z,1020.952
2017-03-23T16:04:19.052Z,1020.995
2017-03-23T16:10:05.776Z,1021.051
2017-03-23T16:12:59.197Z,1021.040
2017-03-23T16:15:52.591Z,1021.039
2017-03-23T16:18:46.034Z,1021.041
2017-03-23T16:21:39.380Z,1021.049
2017-03-23T16:24:32.840Z,1021.105
2017-03-23T16:27:26.239Z,1021.117
2017-03-23T16:33:13.122Z,1021.088
2017-03-23T16:36:06.470Z,1021.137
2017-03-23T16:38:59.860Z,1021.185
2017-03-23T16:41:53.324Z,1021.241
2017-03-23T16:44:46.752Z,1021.271
2017-03-23T16:47:40.183Z,1021.340
2017-03-23T16:50:33.520Z,1021.376
2017-03-23T16:53:26.871Z,1021.381
2017-03-23T16:56:20.318Z,1021.462
2017-03-23T16:59:13.779Z,1021.474
2017-03-23T17:05:00.437Z,1021.448
2017-03-23T17:10:47.045Z,1021.627
2017-03-23T17:13:40.328Z,1021.718
2017-03-23T17:19:27.036Z,1021.761
2017-03-23T17:22:20.423Z,1021.794
2017-03-23T17:25:13.811Z,1021.786
2017-03-23T17:28:07.062Z,1021.836
2017-03-23T17:31:00.372Z,1021.912
2017-03-23T17:33:53.786Z,1021.926
2017-03-23T17:36:47.100Z,1021.957
2017-03-23T17:39:40.568Z,1022.002
2017-03-23T17:42:33.880Z,1022.028
2017-03-23T17:48:20.564Z,1022.106
2017-03-23T17:51:13.857Z,1022.189
2017-03-23T17:57:00.641Z,1022.309
2017-03-23T17:59:53.961Z,1022.371
2017-03-23T18:02:47.336Z,1022.377
2017-03-23T18:05:40.604Z,1022.370
2017-03-23T18:08:33.848Z,1022.437
2017-03-23T18:14:20.711Z,1022.471
2017-03-23T18:17:14.088Z,1022.507
2017-03-23T18:20:07.207Z,1022.525
2017-03-23T18:23:00.380Z,1022.473
2017-03-23T18:25:53.705Z,1022.500
2017-03-23T18:28:47.011Z,1022.576
2017-03-23T18:31:40.379Z,1022.623
2017-03-23T18:34:33.593Z,1022.700
2017-03-23T18:37:26.884Z,1022.757
2017-03-23T18:40:20.111Z,1022.689
2017-03-23T18:43:13.441Z,1022.647
2017-03-23T18:49:00.047Z,1022.614
2017-03-23T18:54:46.701Z,1022.827
2017-03-23T18:57:40.036Z,1022.920
2017-03-23T19:00:33.356Z,1022.975
2017-03-23T19:06:19.830Z,1023.039
2017-03-23T19:09:13.141Z,1023.037
2017-03-23T19:12:06.416Z,1023.060
2017-03-23T19:14:59.946Z,1023.085
2017-03-23T19:17:53.201Z,1023.082
2017-03-23T19:20:46.566Z,1023.065
2017-03-23T19:23:40.204Z,1023.057
2017-03-23T19:26:33.554Z,1023.062
2017-03-23T19:29:26.761Z,1023.009
2017-03-23T19:32:20.043Z,1023.053
2017-03-23T19:43:53.307Z,1023.159
2017-03-23T19:46:46.636Z,1023.205
2017-03-23T19:49:39.917Z,1023.291
2017-03-23T19:55:26.367Z,1023.369
2017-03-23T19:58:19.558Z,1023.418
2017-03-23T20:01:12.773Z,1023.435
2017-03-23T20:04:06.071Z,1023.488
2017-03-23T20:06:59.453Z,1023.512
2017-03-23T20:09:52.693Z,1023.521
2017-03-23T20:15:39.320Z,1023.630
2017-03-23T20:18:32.554Z,1023.635
2017-03-23T20:21:25.740Z,1023.695
2017-03-23T20:24:18.968Z,1023.782
2017-03-23T20:27:12.117Z,1023.800
2017-03-23T20:30:05.251Z,1023.796
2017-03-23T20:38:45.230Z,1024.045
2017-03-23T20:41:38.492Z,1024.074
2017-03-23T20:47:24.935Z,1024.121
2017-03-23T20:50:18.230Z,1024.167
2017-03-23T20:58:58.447Z,1024.257
2017-03-23T21:01:51.547Z,1024.224
2017-03-23T21:04:44.920Z,1024.222
2017-03-23T21:10:31.437Z,1024.317
2017-03-23T21:13:25.366Z,1024.342
2017-03-23T21:16:18.679Z,1024.349
2017-03-23T21:19:12.062Z,1024.412
2017-03-23T21:24:58.704Z,1024.419
2017-03-23T21:27:52.036Z,1024.472
2017-03-23T21:30:45.363Z,1024.481
2017-03-23T21:33:38.675Z,1024.501
2017-03-23T21:36:31.967Z,1024.479
2017-03-23T21:42:18.766Z,1024.513
2017-03-23T21:45:12.072Z,1024.489
2017-03-23T21:50:58.860Z,1024.507
2017-03-23T21:53:52.145Z,1024.588
2017-03-23T21:56:45.414Z,1024.661
2017-03-23T21:59:38.996Z,1024.720
2017-03-23T22:02:32.449Z,1024.757
2017-03-23T22:05:25.476Z,1024.754
2017-03-23T22:08:18.750Z,1024.743
2017-03-23T22:11:11.987Z,1024.765
2017-03-23T22:14:05.149Z,1024.843
2017-03-23T22:16:58.436Z,1024.824
2017-03-23T22:19:51.613Z,1024.830
2017-03-23T22:25:38.345Z,1024.828
2017-03-23T22:28:31.464Z,1024.875
2017-03-23T22:31:24.706Z,1024.928
2017-03-23T22:34:18.107Z,1024.975
2017-03-23T22:40:04.225Z,1025.024
2017-03-23T22:45:50.555Z,1025.061
2017-03-23T22:48:43.588Z,1025.111
2017-03-23T22:51:36.819Z,1025.148
2017-03-23T22:54:30.165Z,1025.159
2017-03-23T22:57:23.344Z,1025.144
2017-03-23T23:03:09.733Z,1025.186
2017-03-23T23:06:02.901Z,1025.208
2017-03-23T23:08:56.110Z,1025.284
2017-03-23T23:14:42.483Z,1025.370
2017-03-23T23:20:28.919Z,1025.395
2017-03-23T23:29:08.584Z,1025.535
2017-03-23T23:32:01.787Z,1025.559
2017-03-23T23:34:55.150Z,1025.609
2017-03-23T23:37:48.369Z,1025.626
2017-03-23T23:43:34.940Z,1025.600
2017-03-23T23:46:28.087Z,1025.579
2017-03-23T23:55:08.572Z,1025.661
2017-03-23T23:58:01.793Z,1025.729
